createdAt,value
2018-12-19T00:01:32.866Z,10.43
2018-12-19T00:04:02.128Z,9.93
2018-12-19T00:06:31.507Z,9.93
2018-12-19T00:09:03.297Z,10.77
2018-12-19T00:11:30.110Z,8.50
2018-12-19T00:13:59.371Z,9.47
2018-12-19T00:16:28.695Z,9.23
2018-12-19T00:18:58.055Z,9.40
2018-12-19T00:21:27.400Z,10.67
2018-12-19T00:23:56.693Z,10.13
2018-12-19T00:26:25.959Z,7.77
2018-12-19T00:28:55.244Z,11.03
2018-12-19T00:31:24.659Z,10.73
2018-12-19T00:33:53.996Z,12.70
2018-12-19T00:36:23.377Z,9.43
2018-12-19T00:38:52.657Z,6.87
2018-12-19T00:41:21.972Z,10.23
2018-12-19T00:43:51.253Z,7.10
2018-12-19T00:46:20.606Z,10.27
2018-12-19T00:48:50.025Z,8.37
2018-12-19T00:51:19.309Z,7.73
2018-12-19T00:53:48.594Z,9.33
2018-12-19T00:56:17.973Z,7.03
2018-12-19T00:58:47.271Z,9.30
2018-12-19T01:01:16.542Z,8.87
2018-12-19T01:03:45.863Z,8.20
2018-12-19T01:06:15.104Z,8.33
2018-12-19T01:08:44.370Z,10.57
2018-12-19T01:11:13.628Z,8.40
2018-12-19T01:13:42.896Z,7.37
2018-12-19T01:16:12.158Z,7.47
2018-12-19T01:18:41.424Z,9.17
2018-12-19T01:21:10.676Z,11.07
2018-12-19T01:23:39.958Z,8.47
2018-12-19T01:26:09.299Z,7.77
2018-12-19T01:28:38.566Z,9.20
2018-12-19T01:31:07.847Z,8.60
2018-12-19T01:33:37.110Z,8.90
2018-12-19T01:36:06.358Z,8.67
2018-12-19T01:38:35.697Z,7.90
2018-12-19T01:41:04.957Z,8.03
2018-12-19T01:43:34.218Z,8.50
2018-12-19T01:46:03.521Z,8.33
2018-12-19T01:48:32.795Z,9.97
2018-12-19T01:51:02.099Z,10.00
2018-12-19T01:53:31.403Z,9.17
2018-12-19T01:56:00.723Z,9.47
2018-12-19T01:58:30.116Z,6.33
2018-12-19T02:00:59.440Z,8.40
2018-12-19T02:03:29.122Z,8.27
2018-12-19T02:05:58.529Z,8.93
2018-12-19T02:08:27.819Z,10.37
2018-12-19T02:10:57.429Z,9.40
2018-12-19T02:13:26.708Z,9.77
2018-12-19T02:15:55.997Z,9.20
2018-12-19T02:18:25.357Z,9.93
2018-12-19T02:20:54.606Z,7.60
2018-12-19T02:23:23.876Z,9.77
2018-12-19T02:25:53.179Z,8.97
2018-12-19T02:28:22.485Z,8.63
2018-12-19T02:30:51.753Z,8.30
2018-12-19T02:33:21.070Z,9.30
2018-12-19T02:35:50.376Z,10.77
2018-12-19T02:38:19.695Z,10.37
2018-12-19T02:40:48.953Z,9.13
2018-12-19T02:43:18.278Z,9.60
2018-12-19T02:45:47.537Z,8.20
2018-12-19T02:48:16.857Z,9.80
2018-12-19T02:50:46.108Z,8.93
2018-12-19T02:53:15.446Z,9.47
2018-12-19T02:55:44.849Z,11.63
2018-12-19T02:58:14.137Z,11.47
2018-12-19T03:00:43.492Z,8.93
2018-12-19T03:03:12.758Z,8.33
2018-12-19T03:05:42.049Z,8.73
2018-12-19T03:08:11.383Z,9.10
2018-12-19T03:10:40.648Z,9.00
2018-12-19T03:13:10.010Z,10.33
2018-12-19T03:15:39.202Z,11.03
2018-12-19T03:18:08.449Z,8.13
2018-12-19T03:20:37.719Z,9.53
2018-12-19T03:23:06.981Z,9.00
2018-12-19T03:25:36.222Z,11.20
2018-12-19T03:28:05.493Z,10.13
2018-12-19T03:30:34.720Z,9.00
2018-12-19T03:33:03.996Z,9.93
2018-12-19T03:35:33.362Z,9.23
2018-12-19T03:38:02.612Z,8.80
2018-12-19T03:40:31.939Z,8.93
2018-12-19T03:43:01.193Z,8.73
2018-12-19T03:45:30.438Z,10.33
2018-12-19T03:47:59.736Z,8.77
2018-12-19T03:50:29.037Z,8.97
2018-12-19T03:52:58.358Z,9.00
2018-12-19T03:55:27.776Z,9.50
2018-12-19T03:57:57.039Z,9.13
2018-12-19T04:00:26.353Z,9.37
2018-12-19T04:02:55.728Z,8.53
2018-12-19T04:05:24.958Z,8.67
2018-12-19T04:07:54.247Z,8.83
2018-12-19T04:10:23.521Z,7.90
2018-12-19T04:12:55.510Z,7.97
2018-12-19T04:15:24.852Z,11.00
2018-12-19T04:17:54.169Z,10.10
2018-12-19T04:20:23.405Z,8.07
2018-12-19T04:22:52.751Z,9.40
2018-12-19T04:25:22.031Z,10.57
2018-12-19T04:27:51.312Z,10.77
2018-12-19T04:30:20.540Z,10.67
2018-12-19T04:32:49.812Z,9.90
2018-12-19T04:35:19.095Z,9.73
2018-12-19T04:37:48.435Z,10.83
2018-12-19T04:40:17.720Z,11.50
2018-12-19T04:42:47.012Z,8.67
2018-12-19T04:45:16.259Z,10.00
2018-12-19T04:47:45.563Z,11.13
2018-12-19T04:50:14.812Z,11.67
2018-12-19T04:52:44.059Z,10.67
2018-12-19T04:55:13.361Z,9.47
2018-12-19T04:57:42.622Z,10.73
2018-12-19T05:00:11.917Z,15.20
2018-12-19T05:02:41.190Z,10.60
2018-12-19T05:05:10.478Z,10.83
2018-12-19T05:07:39.819Z,11.60
2018-12-19T05:10:12.498Z,10.80
2018-12-19T05:12:38.362Z,10.47
2018-12-19T05:15:08.379Z,9.67
2018-12-19T05:17:37.673Z,9.63
2018-12-19T05:20:08.946Z,9.33
2018-12-19T05:22:38.212Z,44.33
2018-12-19T05:25:10.304Z,17.93
2018-12-19T05:27:39.598Z,10.20
2018-12-19T05:30:08.910Z,10.40
2018-12-19T05:32:38.131Z,12.37
2018-12-19T05:35:07.431Z,12.67
2018-12-19T05:37:36.692Z,10.57
2018-12-19T05:40:07.571Z,10.63
2018-12-19T05:42:36.840Z,11.10
2018-12-19T05:45:07.752Z,10.30
2018-12-19T05:47:37.030Z,8.13
2018-12-19T05:50:06.888Z,10.40
2018-12-19T05:52:36.161Z,12.00
2018-12-19T05:55:05.818Z,12.03
2018-12-19T05:57:35.061Z,14.53
2018-12-19T06:00:04.916Z,12.80
2018-12-19T06:02:34.751Z,11.07
2018-12-19T06:05:04.757Z,10.93
2018-12-19T06:07:34.042Z,12.17
2018-12-19T06:10:03.290Z,12.13
2018-12-19T06:12:32.562Z,13.17
2018-12-19T06:15:01.834Z,13.43
2018-12-19T06:17:31.096Z,12.23
2018-12-19T06:20:00.444Z,11.47
2018-12-19T06:22:29.765Z,9.57
2018-12-19T06:24:59.011Z,14.07
2018-12-19T06:27:28.300Z,12.13
2018-12-19T06:29:57.643Z,9.57
2018-12-19T06:32:26.908Z,8.57
2018-12-19T06:34:56.246Z,10.43
2018-12-19T06:37:25.489Z,9.50
2018-12-19T06:39:54.839Z,9.97
2018-12-19T06:42:24.107Z,9.80
2018-12-19T06:44:53.348Z,9.30
2018-12-19T06:47:22.666Z,11.73
2018-12-19T06:49:51.941Z,11.30
2018-12-19T06:52:21.206Z,11.07
2018-12-19T06:54:50.544Z,13.40
2018-12-19T06:57:19.972Z,10.43
2018-12-19T06:59:49.261Z,11.87
2018-12-19T07:02:19.693Z,10.90
2018-12-19T07:04:47.820Z,10.33
2018-12-19T07:07:17.113Z,11.53
2018-12-19T07:09:46.378Z,10.70
2018-12-19T07:12:15.664Z,12.60
2018-12-19T07:14:46.327Z,11.03
2018-12-19T07:17:14.270Z,12.57
2018-12-19T07:19:43.565Z,9.87
2018-12-19T07:22:12.870Z,10.93
2018-12-19T07:24:42.216Z,12.80
2018-12-19T07:27:11.532Z,12.53
2018-12-19T07:29:41.562Z,11.77
2018-12-19T07:32:10.868Z,12.33
2018-12-19T07:34:44.140Z,11.40
2018-12-19T07:37:09.599Z,11.47
2018-12-19T07:39:38.914Z,13.00
2018-12-19T07:42:08.301Z,11.33
2018-12-19T07:44:37.604Z,11.00
2018-12-19T07:47:07.047Z,13.23
2018-12-19T07:49:36.360Z,11.83
2018-12-19T07:52:05.693Z,12.90
2018-12-19T07:54:35.115Z,13.07
2018-12-19T07:57:04.439Z,16.60
2018-12-19T07:59:33.718Z,14.33
2018-12-19T08:02:03.040Z,14.20
2018-12-19T08:04:32.330Z,12.73
2018-12-19T08:07:02.112Z,12.83
2018-12-19T08:09:31.536Z,14.47
2018-12-19T08:12:00.784Z,12.83
2018-12-19T08:14:30.036Z,16.40
2018-12-19T08:16:59.358Z,15.77
2018-12-19T08:19:29.605Z,15.27
2018-12-19T08:21:58.864Z,15.40
2018-12-19T08:24:28.156Z,13.90
2018-12-19T08:26:57.437Z,15.70
2018-12-19T08:29:26.761Z,17.07
2018-12-19T08:31:56.086Z,15.17
2018-12-19T08:34:25.463Z,13.73
2018-12-19T08:36:54.768Z,14.70
2018-12-19T08:39:24.048Z,11.80
2018-12-19T08:41:53.477Z,13.13
2018-12-19T08:44:24.410Z,14.67
2018-12-19T08:46:52.270Z,13.40
2018-12-19T08:49:21.558Z,13.60
2018-12-19T08:51:50.891Z,14.17
2018-12-19T08:54:20.284Z,13.80
2018-12-19T08:56:49.553Z,12.90
2018-12-19T08:59:18.817Z,14.97
2018-12-19T09:01:48.087Z,15.63
2018-12-19T09:04:17.398Z,14.07
2018-12-19T09:06:46.792Z,16.57
2018-12-19T09:09:16.102Z,14.07
2018-12-19T09:11:45.416Z,14.33
2018-12-19T09:14:14.702Z,14.70
2018-12-19T09:16:44.088Z,14.83
2018-12-19T09:19:13.425Z,15.80
2018-12-19T09:21:42.794Z,14.90
2018-12-19T09:24:12.085Z,15.73
2018-12-19T09:26:41.512Z,14.80
2018-12-19T09:29:10.807Z,15.40
2018-12-19T09:31:40.211Z,14.80
2018-12-19T09:34:09.511Z,16.13
2018-12-19T09:36:38.831Z,14.70
2018-12-19T09:39:08.117Z,17.80
2018-12-19T09:41:39.565Z,18.23
2018-12-19T09:44:09.015Z,16.23
2018-12-19T09:46:38.359Z,17.17
2018-12-19T09:49:12.319Z,16.37
2018-12-19T09:51:36.925Z,18.00
2018-12-19T09:54:06.367Z,17.67
2018-12-19T09:56:35.771Z,15.43
2018-12-19T09:59:05.104Z,15.70
2018-12-19T10:01:34.403Z,17.30
2018-12-19T10:04:03.917Z,19.20
2018-12-19T10:06:33.197Z,18.53
2018-12-19T10:09:02.631Z,18.57
2018-12-19T10:11:31.983Z,15.43
2018-12-19T10:14:01.283Z,15.40
2018-12-19T10:16:30.716Z,16.00
2018-12-19T10:19:00.008Z,16.67
2018-12-19T10:21:29.290Z,17.77
2018-12-19T10:23:58.721Z,19.27
2018-12-19T10:26:28.100Z,17.93
2018-12-19T10:28:57.559Z,15.27
2018-12-19T10:31:27.215Z,17.07
2018-12-19T10:33:56.529Z,18.17
2018-12-19T10:36:38.466Z,18.63
2018-12-19T10:39:13.887Z,19.63
2018-12-19T10:41:43.162Z,16.67
2018-12-19T10:44:12.553Z,17.20
2018-12-19T10:46:41.865Z,17.27
2018-12-19T10:49:11.145Z,16.43
2018-12-19T10:51:40.462Z,16.87
2018-12-19T10:54:09.779Z,16.50
2018-12-19T10:56:39.178Z,16.27
2018-12-19T10:59:08.594Z,17.97
2018-12-19T11:01:37.975Z,15.60
2018-12-19T11:04:07.478Z,18.33
2018-12-19T11:06:36.784Z,18.07
2018-12-19T11:09:07.485Z,17.57
2018-12-19T11:11:36.818Z,18.97
2018-12-19T11:14:06.114Z,18.67
2018-12-19T11:16:35.421Z,20.23
2018-12-19T11:19:04.723Z,18.47
2018-12-19T11:21:34.027Z,19.30
2018-12-19T11:24:03.325Z,20.73
2018-12-19T11:26:32.623Z,18.27
2018-12-19T11:29:02.857Z,17.37
2018-12-19T11:31:31.274Z,18.40
2018-12-19T11:34:00.655Z,17.40
2018-12-19T11:36:30.041Z,19.17
2018-12-19T11:38:59.344Z,17.70
2018-12-19T11:41:28.672Z,17.90
2018-12-19T11:43:58.050Z,18.67
2018-12-19T11:46:27.559Z,18.50
2018-12-19T11:48:56.937Z,17.40
2018-12-19T11:51:26.283Z,16.67
2018-12-19T11:53:55.576Z,18.30
2018-12-19T11:56:25.033Z,18.53
2018-12-19T11:58:54.331Z,18.83
2018-12-19T12:01:23.689Z,16.37
2018-12-19T12:03:52.953Z,18.47
2018-12-19T12:06:22.294Z,18.87
2018-12-19T12:08:51.667Z,19.57
2018-12-19T12:11:21.501Z,17.53
2018-12-19T12:13:50.873Z,20.87
2018-12-19T12:16:20.227Z,17.43
2018-12-19T12:18:49.521Z,17.30
2018-12-19T12:21:18.922Z,16.80
2018-12-19T12:23:48.192Z,18.13
2018-12-19T12:26:17.501Z,17.80
2018-12-19T12:28:46.904Z,16.10
2018-12-19T12:31:16.218Z,14.37
2018-12-19T12:33:45.518Z,17.87
2018-12-19T12:36:14.958Z,16.43
2018-12-19T12:38:44.329Z,16.57
2018-12-19T12:41:13.619Z,15.23
2018-12-19T12:43:42.887Z,15.10
2018-12-19T12:46:12.200Z,16.97
2018-12-19T12:48:42.740Z,20.23
2018-12-19T12:51:12.144Z,18.33
2018-12-19T12:53:41.436Z,16.50
2018-12-19T12:56:10.832Z,18.07
2018-12-19T12:58:40.139Z,16.47
2018-12-19T13:01:09.428Z,17.70
2018-12-19T13:03:38.732Z,15.47
2018-12-19T13:06:08.145Z,15.57
2018-12-19T13:08:37.414Z,18.67
2018-12-19T13:11:06.745Z,18.57
2018-12-19T13:13:36.016Z,18.00
2018-12-19T13:16:05.320Z,16.80
2018-12-19T13:18:34.650Z,19.57
2018-12-19T13:21:04.087Z,15.80
2018-12-19T13:23:33.450Z,15.43
2018-12-19T13:26:02.763Z,18.60
2018-12-19T13:28:32.158Z,16.67
2018-12-19T13:31:01.462Z,17.10
2018-12-19T13:33:30.776Z,15.93
2018-12-19T13:36:00.051Z,17.13
2018-12-19T13:38:29.361Z,18.23
2018-12-19T13:40:58.684Z,15.03
2018-12-19T13:43:29.500Z,16.53
2018-12-19T13:45:58.970Z,16.87
2018-12-19T13:48:28.254Z,19.43
2018-12-19T13:50:57.632Z,18.10
2018-12-19T13:53:27.024Z,16.67
2018-12-19T13:55:56.426Z,16.93
2018-12-19T13:58:26.104Z,16.47
2018-12-19T14:00:55.524Z,17.50
2018-12-19T14:03:24.936Z,16.00
2018-12-19T14:05:54.248Z,16.43
2018-12-19T14:08:23.528Z,17.97
2018-12-19T14:10:52.965Z,17.67
2018-12-19T14:13:23.704Z,15.57
2018-12-19T14:15:53.000Z,17.20
2018-12-19T14:18:22.385Z,16.27
2018-12-19T14:20:52.320Z,18.07
2018-12-19T14:23:21.634Z,17.40
2018-12-19T14:25:50.976Z,14.37
2018-12-19T14:28:20.406Z,16.73
2018-12-19T14:30:49.766Z,16.30
2018-12-19T14:33:19.051Z,15.60
2018-12-19T14:35:48.323Z,14.43
2018-12-19T14:38:17.604Z,15.20
2018-12-19T14:40:46.880Z,14.67
2018-12-19T14:43:16.148Z,13.53
2018-12-19T14:45:45.508Z,12.33
2018-12-19T14:48:14.820Z,14.43
2018-12-19T14:50:44.086Z,14.13
2018-12-19T14:53:13.948Z,13.23
2018-12-19T14:55:43.258Z,15.17
2018-12-19T14:58:12.537Z,14.27
2018-12-19T15:00:41.840Z,17.13
2018-12-19T15:03:11.227Z,14.63
2018-12-19T15:05:40.529Z,16.17
2018-12-19T15:08:09.849Z,13.83
2018-12-19T15:10:39.133Z,16.90
2018-12-19T15:13:08.461Z,18.20
2018-12-19T15:15:37.770Z,16.77
2018-12-19T15:18:07.082Z,15.00
2018-12-19T15:20:36.338Z,17.67
2018-12-19T15:23:05.654Z,15.70
2018-12-19T15:25:35.693Z,15.27
2018-12-19T15:28:05.022Z,14.47
2018-12-19T15:30:34.468Z,15.17
2018-12-19T15:33:03.760Z,16.00
2018-12-19T15:35:33.048Z,19.03
2018-12-19T15:38:02.936Z,17.03
2018-12-19T15:40:32.212Z,14.00
2018-12-19T15:43:01.553Z,13.13
2018-12-19T15:45:30.861Z,14.00
2018-12-19T15:48:00.322Z,15.10
2018-12-19T15:50:29.636Z,17.57
2018-12-19T15:52:59.025Z,14.90
2018-12-19T15:55:28.287Z,16.67
2018-12-19T15:57:57.595Z,16.10
2018-12-19T16:00:26.989Z,15.90
2018-12-19T16:02:56.291Z,16.17
2018-12-19T16:05:25.616Z,15.10
2018-12-19T16:07:54.884Z,16.37
2018-12-19T16:10:24.159Z,16.70
2018-12-19T16:12:53.470Z,19.57
2018-12-19T16:15:22.791Z,17.80
2018-12-19T16:17:52.221Z,16.20
2018-12-19T16:20:21.530Z,16.40
2018-12-19T16:22:51.256Z,17.80
2018-12-19T16:25:20.575Z,17.80
2018-12-19T16:27:49.870Z,18.10
2018-12-19T16:30:19.248Z,17.20
2018-12-19T16:32:48.506Z,18.53
2018-12-19T16:35:17.849Z,17.73
2018-12-19T16:37:47.116Z,19.80
2018-12-19T16:40:16.428Z,20.47
2018-12-19T16:42:46.257Z,17.30
2018-12-19T16:45:14.969Z,15.97
2018-12-19T16:47:44.243Z,17.80
2018-12-19T16:50:13.562Z,17.33
2018-12-19T16:52:42.851Z,17.30
2018-12-19T16:55:12.254Z,17.53
2018-12-19T16:57:41.678Z,17.60
2018-12-19T17:00:11.478Z,17.13
2018-12-19T17:02:40.795Z,16.40
2018-12-19T17:05:10.218Z,16.33
2018-12-19T17:07:39.596Z,16.63
2018-12-19T17:10:09.107Z,15.40
2018-12-19T17:12:38.415Z,17.57
2018-12-19T17:15:07.710Z,17.10
2018-12-19T17:17:36.957Z,20.47
2018-12-19T17:20:07.131Z,17.10
2018-12-19T17:22:36.451Z,23.63
2018-12-19T17:25:06.025Z,19.00
2018-12-19T17:27:35.391Z,22.53
2018-12-19T17:30:04.716Z,21.67
2018-12-19T17:32:34.048Z,22.17
2018-12-19T17:35:03.428Z,24.87
2018-12-19T17:37:32.671Z,26.33
2018-12-19T17:40:02.009Z,24.43
2018-12-19T17:42:31.269Z,23.97
2018-12-19T17:45:00.722Z,22.60
2018-12-19T17:47:30.130Z,26.27
2018-12-19T17:49:59.425Z,23.37
2018-12-19T17:52:28.734Z,23.67
2018-12-19T17:54:58.090Z,24.27
2018-12-19T17:57:27.430Z,27.90
2018-12-19T17:59:56.773Z,25.40
2018-12-19T18:02:26.079Z,27.63
2018-12-19T18:04:55.468Z,24.40
2018-12-19T18:07:24.756Z,23.40
2018-12-19T18:09:54.054Z,22.70
2018-12-19T18:12:23.435Z,26.83
2018-12-19T18:14:52.743Z,24.97
2018-12-19T18:17:22.040Z,25.30
2018-12-19T18:19:51.334Z,22.90
2018-12-19T18:22:20.646Z,29.93
2018-12-19T18:24:49.958Z,24.40
2018-12-19T18:27:19.236Z,23.77
2018-12-19T18:29:48.562Z,22.70
2018-12-19T18:32:17.851Z,26.17
2018-12-19T18:34:47.279Z,27.57
2018-12-19T18:37:16.646Z,26.23
2018-12-19T18:39:45.945Z,22.13
2018-12-19T18:42:15.225Z,27.10
2018-12-19T18:44:44.746Z,23.77
2018-12-19T18:47:14.009Z,26.13
2018-12-19T18:49:43.286Z,24.60
2018-12-19T18:52:12.657Z,23.77
2018-12-19T18:54:41.935Z,24.73
2018-12-19T18:57:11.213Z,30.53
2018-12-19T18:59:40.540Z,24.67
2018-12-19T19:02:10.044Z,27.67
2018-12-19T19:04:39.314Z,27.30
2018-12-19T19:07:08.302Z,25.13
2018-12-19T19:09:37.528Z,23.53
2018-12-19T19:12:06.787Z,24.37
2018-12-19T19:14:36.120Z,28.60
2018-12-19T19:17:05.418Z,27.97
2018-12-19T19:19:34.776Z,29.17
2018-12-19T19:22:04.038Z,27.23
2018-12-19T19:24:33.334Z,24.77
2018-12-19T19:27:02.627Z,27.63
2018-12-19T19:29:31.986Z,29.97
2018-12-19T19:32:01.361Z,29.27
2018-12-19T19:34:30.723Z,25.67
2018-12-19T19:37:00.067Z,27.27
2018-12-19T19:39:29.362Z,28.13
2018-12-19T19:41:58.810Z,26.57
2018-12-19T19:44:28.178Z,24.97
2018-12-19T19:46:57.474Z,25.40
2018-12-19T19:49:26.785Z,25.97
2018-12-19T19:51:56.073Z,27.57
2018-12-19T19:54:25.493Z,27.23
2018-12-19T19:56:54.799Z,25.37
2018-12-19T19:59:24.087Z,29.13
2018-12-19T20:01:53.436Z,28.03
2018-12-19T20:04:22.747Z,26.93
2018-12-19T20:06:59.002Z,28.83
2018-12-19T20:09:21.489Z,28.80
2018-12-19T20:11:50.811Z,29.30
2018-12-19T20:14:20.091Z,26.50
2018-12-19T20:17:01.778Z,25.50
2018-12-19T20:19:31.162Z,27.57
2018-12-19T20:22:00.686Z,28.97
2018-12-19T20:24:30.076Z,27.67
2018-12-19T20:26:59.410Z,30.53
2018-12-19T20:29:28.757Z,28.97
2018-12-19T20:31:58.040Z,26.57
2018-12-19T20:34:27.382Z,29.53
2018-12-19T20:36:56.720Z,29.43
2018-12-19T20:39:26.099Z,32.27
2018-12-19T20:41:55.497Z,35.50
2018-12-19T20:44:24.835Z,29.93
2018-12-19T20:46:54.203Z,31.47
2018-12-19T20:49:23.736Z,34.50
2018-12-19T20:51:53.006Z,31.20
2018-12-19T20:54:22.441Z,29.70
2018-12-19T20:56:51.704Z,31.17
2018-12-19T20:59:21.077Z,29.93
2018-12-19T21:01:50.554Z,30.93
2018-12-19T21:04:20.037Z,27.17
2018-12-19T21:06:49.292Z,31.50
2018-12-19T21:09:18.661Z,30.40
2018-12-19T21:11:48.034Z,30.60
2018-12-19T21:14:17.505Z,30.67
2018-12-19T21:17:04.465Z,33.40
2018-12-19T21:19:34.030Z,30.73
2018-12-19T21:22:03.397Z,32.13
2018-12-19T21:24:32.727Z,28.83
2018-12-19T21:27:02.093Z,30.67
2018-12-19T21:29:31.460Z,33.20
2018-12-19T21:32:00.809Z,32.90
2018-12-19T21:34:30.243Z,35.17
2018-12-19T21:36:59.693Z,30.13
2018-12-19T21:39:29.030Z,35.90
2018-12-19T21:41:58.413Z,29.63
2018-12-19T21:44:27.796Z,33.93
2018-12-19T21:46:57.168Z,32.03
2018-12-19T21:49:26.595Z,30.73
2018-12-19T21:51:55.877Z,35.43
2018-12-19T21:54:25.263Z,29.70
2018-12-19T21:56:54.620Z,31.83
2018-12-19T21:59:23.949Z,31.10
2018-12-19T22:01:53.276Z,35.23
2018-12-19T22:04:22.678Z,39.20
2018-12-19T22:06:51.972Z,34.67
2018-12-19T22:09:21.247Z,34.23
2018-12-19T22:11:50.724Z,36.43
2018-12-19T22:14:20.046Z,35.03
2018-12-19T22:17:06.937Z,31.97
2018-12-19T22:19:36.345Z,31.77
2018-12-19T22:22:05.749Z,39.50
2018-12-19T22:24:35.161Z,32.53
2018-12-19T22:27:04.478Z,34.40
2018-12-19T22:29:33.940Z,36.97
2018-12-19T22:32:03.337Z,34.03
2018-12-19T22:34:32.603Z,31.80
2018-12-19T22:37:02.024Z,30.50
2018-12-19T22:39:31.334Z,31.63
2018-12-19T22:42:00.623Z,31.60
2018-12-19T22:44:29.926Z,28.30
2018-12-19T22:46:59.273Z,31.07
2018-12-19T22:49:28.575Z,30.20
2018-12-19T22:51:57.890Z,29.37
2018-12-19T22:54:27.153Z,30.00
2018-12-19T22:56:56.430Z,36.13
2018-12-19T22:59:25.998Z,33.80
2018-12-19T23:02:20.490Z,35.13
2018-12-19T23:04:49.803Z,33.23
2018-12-19T23:07:19.101Z,32.47
2018-12-19T23:09:48.418Z,32.73
2018-12-19T23:12:17.745Z,36.87
2018-12-19T23:14:47.097Z,33.23
2018-12-19T23:17:34.512Z,36.43
2018-12-19T23:20:04.425Z,32.27
2018-12-19T23:22:33.773Z,27.87
2018-12-19T23:25:03.263Z,30.80
2018-12-19T23:27:34.173Z,30.40
2018-12-19T23:30:03.502Z,27.43
2018-12-19T23:32:32.821Z,27.77
2018-12-19T23:35:02.069Z,28.40
2018-12-19T23:37:31.583Z,28.63
2018-12-19T23:40:00.691Z,28.07
2018-12-19T23:42:30.013Z,26.37
2018-12-19T23:44:59.418Z,27.73
2018-12-19T23:47:28.686Z,29.07
2018-12-19T23:49:57.959Z,26.10
2018-12-19T23:52:27.180Z,29.20
2018-12-19T23:54:56.513Z,26.30
2018-12-19T23:57:25.782Z,30.47
2018-12-19T23:59:55.331Z,26.60
